Island Park, ID

7:59 AM MDT on July 28, 2014 (GMT -0600)
Centennial Shores (KIDISLAN3) Elev 6295 ft | 44.44 °N, 111.46 °W | Change Station

Current weather conditions updated 25 seconds ago

Clear
Clear
63.3 °F
Feels Like 63.3 °F
N
2.0
Wind Variable Wind from ENE
Gusts 8.0 mph

Today is forecast to be nearly the same temperature as yesterday.

Today
High -- | Low -- °F
--% Chance of Precip.
Yesterday
High -- | Low -- °F
Precip. -- in
6:07 AM 8:55 PM
New Moon, 2% visible
Pressure 30.43 in
Visibility 10.0 miles
Clouds Clear
Dew Point 29 °F
Humidity 23%
Rainfall -999.00 in
Snow Depth 0 in , 0 in
UV 1 out of 12
Pollen 6.30 out of 12
Air Quality Not available.
Flu Activity Not available.
METAR KWYS 281350Z AUTO 00000KT 10SM CLR 10/04 A3043 RMK AO2

More Conditions Fewer Conditions

Pressure 30.43 in
Visibility 10.0 miles
Clouds Clear
Dew Point 29 °F
Humidity 23%
Rainfall -999.00 in
Snow Depth 0 in , 0 in
UV 1 out of 12
Pollen 6.30 out of 12
Air Quality Not available.
Flu Activity Not available.
METAR KWYS 281350Z AUTO 00000KT 10SM CLR 10/04 A3043 RMK AO2

More Conditions Fewer Conditions

10-Day Weather Forecast

Almanac

Astronomy

Jul. 28, 2014 Rise Set
Actual Time 6:07 AM MDT 8:55 PM MDT
Civil Twilight 5:34 AM MDT 9:28 PM MDT
Nautical Twilight 4:51 AM MDT 10:11 PM MDT
Astronomical Twilight 4:01 AM MDT 11:00 PM MDT
Moon 7:59 AM MDT 9:31 PM MDT
Length of Visible Light 15h 54m
Length of Day
14h 47m
Tomorrow will be 2m 14s shorter.
New Moon, 2% of the Moon is Illuminated
Today
New Moon
Aug 3
First Quarter
Aug 10
Full
Aug 17
Last Quarter
Aug 25
New

Today's Extremes

State Highs State Lows

Community

WunderPhotos

Upload Photos

1,738,329 photos uploaded!

Nearby

Snow Depth

Station Depth Elevation
Island Park 0 in 6290 ft
White Elephant 0 in 7710 ft
Crab Creek 0 in 6860 ft
Sheep Mountain 0 in 6570 ft
Moonshine 1 in 7440 ft

Earthquake Activity

City Distance Mag. Time & Date
No recent earthquake activity has been reported nearby.
Minimum magnitude displayed is 2.5.

Coastal Water Temperatures

Place Temperature
No Stations Reporting

Nearby Weather Stations

Station Location Temp. Windchill Dew Point Humidity Wind Precip. Elev Updated Type
RAWS ISLAND PARK ID, Island Park, ID 60 °F - 36 °F 40% NNE  at  8 mph 0.00 in / hr 6336 ft 6:54 AM MDT MADIS
HADS ISLAND PARK DAM & RESERVOIR NEAR ID, Island Park, ID 64 °F - - - North  at  - 0.00 in / hr 6302 ft 6:45 AM MDT MADIS
Centennial Shores, Island Park, ID 63.3 °F - 29 °F 23% ENE  at  2.0 mph - / hr 6295 ft 7:58 AM MDT Rapid Fire
HADS VALLEY VIEW NEAR ISLAND PARK 17N ID, West Yellowstone, MT 59 °F - - - North  at  - 0.00 in / hr 6500 ft 6:45 AM MDT MADIS
RAWS HEBGEN LAKE MT, West Yellowstone, MT 46 °F 46 °F 35 °F 65% SE  at  1 mph 0.00 in / hr 6700 ft 6:39 AM MDT MADIS
HADS OLD FAITHFUL RANGER STATION WY, Yellowstone National Park, WY 46 °F 46 °F 35 °F 67% North  at  0 mph 0.00 in / hr 7319 ft 7:15 AM MDT MADIS

Show More Stations Show Fewer Stations